METAR de aeropuertos de Murcia y cercanos

 

LEAL - Alicante
Actualización: 18/10/2018 11:30
Despejado
Despejado
 Viento del varies
Viento: varies 2 km/h
Temperatura: 22°C
Rocío: 12°C
Humedad: 53%
Barómetro: 1009 hPa
Resumen: Despejado
Visibilidad: greater than 10 km
2018/10/18 09:30 LEAL 180930Z VRB01KT CAVOK 22/12 Q1009 NOSIG
LEAB - Albacete
Actualización: 18/10/2018 11:00
Few Clouds
Few Clouds
 Viento del NE
Viento: NE 7 km/h
Temperatura: 14°C
Rocío: 10°C
Humedad: 77%
Barómetro: 1012 hPa
Nubosidad: Few Clouds
Visibilidad: 10 km
Cloud details: Few Clouds 1372 m
2018/10/18 09:00 LEAB 180900Z 05004KT 9999 FEW045 14/10 Q1012 NOSIG
LEAM - Almería
Actualización: 18/10/2018 11:30
Few Clouds
Few Clouds
 Viento del ENE
Viento: ENE 20 km/h
Temperatura: 22°C
Rocío: 15°C
Humedad: 65%
Barómetro: 1008 hPa
Nubosidad: Few Clouds
Visibilidad: 10 km
Cloud details: Few Clouds 762 m
2018/10/18 09:30 LEAM 180930Z 07011KT 050V110 9999 FEW025 22/15 Q1008
 
LERI - Murcia/Alcantarilla
Actualización: 18/10/2018 11:00
Despejado
Despejado
 Viento del varies
Viento: varies 4 km/h
Temperatura: 18°C
Rocío: 13°C
Humedad: 73%
Barómetro: 1010 hPa
Resumen: Despejado
Visibilidad: greater than 10 km
2018/10/18 09:00 LERI 180900Z VRB02KT CAVOK 18/13 Q1010 NOSIG
LELC - Murcia/San Javier
Actualización: 18/10/2018 11:30
Few Clouds
Few Clouds
 Viento del ENE
Viento: ENE 7 km/h
Temperatura: 22°C
Rocío: 15°C
Humedad: 65%
Barómetro: 1009 hPa
Nubosidad: Few Clouds
Visibilidad: 10 km
Cloud details: Few Clouds 1402 m
2018/10/18 09:30 LELC 180930Z 07004KT 010V130 9999 FEW046 22/15 Q1009 NOSIG

La estación de MeteoMurcia.com, publica sus datos en los siguientes proyectos:

Meteoclimatic www.awekas.at

W3Counter
Web Analytics